Time;durP1;ratioP1;P1;durP2;ratioP2;P2;SDS_P1;SDS_P2;PMS_P1;PMS_P2;Temp;Humidity;BMP_temperature;BMP_pressure;BME280_temperature;BME280_humidity;BME280_pressure;Samples;Min_cycle;Max_cycle;Signal;HPM_P1;HPM_P2
2023/03/27 00:02:19;;;;;;;;;;;;;;;13.17;40.73;98787.13;5092623;28;19916;-38
2023/03/27 00:04:44;;;;;;;;;;;;;;;13.29;40.71;98783.34;5091928;28;20287;-37
2023/03/27 00:07:11;;;;;;;;;;;;;;;13.19;41.25;98780.47;5071832;28;20359;-37
2023/03/27 00:09:37;;;;;;;;;;;;;;;13.27;40.93;98784.63;5072282;28;19923;-37
2023/03/27 00:12:03;;;;;;;;;;;;;;;13.36;40.45;98774.34;5071887;28;19920;-37
2023/03/27 00:14:29;;;;;;;;;;;;;;;13.33;40.38;98773.00;5071842;28;19912;-37
2023/03/27 00:16:56;;;;;;;;;;;;;;;13.35;40.37;98764.75;5071756;28;19913;-37
2023/03/27 00:19:21;;;;;;;;;;;;;;;13.08;41.03;98770.72;5071652;28;20380;-37
2023/03/27 00:21:47;;;;;;;;;;;;;;;13.06;40.66;98772.81;5071535;28;19924;-37
2023/03/27 00:24:14;;;;;;;;;;;;;;;13.09;41.01;98773.13;5071398;28;19920;-37
2023/03/27 00:26:41;;;;;;;;;;;;;;;13.05;41.02;98765.84;5071486;28;19998;-37
2023/03/27 00:29:07;;;;;;;;;;;;;;;12.76;41.62;98768.59;5071602;28;20013;-37
2023/03/27 00:31:32;;;;;;;;;;;;;;;12.53;42.86;98766.88;5071447;28;19963;-37
2023/03/27 00:33:57;;;;;;;;;;;;;;;12.54;42.63;98771.16;5071083;28;20431;-37
2023/03/27 00:36:22;;;;;;;;;;;;;;;12.48;42.59;98767.56;5090031;28;19916;-37
2023/03/27 00:38:51;;;;;;;;;;;;;;;12.07;44.02;98761.50;5091643;28;19912;-38
2023/03/27 00:41:17;;;;;;;;;;;;;;;12.02;44.55;98771.25;5091436;28;19944;-37
2023/03/27 00:43:42;;;;;;;;;;;;;;;12.43;43.04;98753.31;5091304;28;19952;-36
2023/03/27 00:46:14;;;;;;;;;;;;;;;12.58;43.11;98748.25;5091569;28;20398;-36
2023/03/27 00:48:39;;;;;;;;;;;;;;;12.86;42.88;98741.25;5090853;28;20011;-37
2023/03/27 00:51:05;;;;;;;;;;;;;;;12.94;41.97;98740.84;5091243;28;19939;-36
2023/03/27 00:53:31;;;;;;;;;;;;;;;12.91;42.33;98734.13;5091326;28;20003;-36
2023/03/27 00:55:59;;;;;;;;;;;;;;;12.93;50.05;98733.91;5090807;28;20016;-36
2023/03/27 00:58:27;;;;;;;;;;;;;;;13.10;43.64;98723.22;5091353;28;19916;-37
2023/03/27 01:00:53;;;;;;;;;;;;;;;13.16;42.31;98726.75;5091127;28;20360;-38
2023/03/27 01:03:19;;;;;;;;;;;;;;;12.90;42.59;98721.81;5091076;28;19922;-36
2023/03/27 01:05:45;;;;;;;;;;;;;;;12.92;42.52;98713.56;5091179;28;19991;-36
2023/03/27 01:08:11;;;;;;;;;;;;;;;12.93;42.64;98711.72;5091021;28;19955;-36
2023/03/27 01:10:42;;;;;;;;;;;;;;;12.99;42.32;98708.09;5091037;28;19919;-36
2023/03/27 01:13:08;;;;;;;;;;;;;;;12.99;42.65;98714.22;5091071;28;19918;-36
2023/03/27 01:15:33;;;;;;;;;;;;;;;13.23;42.54;98714.03;5090824;28;19915;-37
2023/03/27 01:18:07;;;;;;;;;;;;;;;13.23;42.34;98724.72;5090709;28;20365;-37
2023/03/27 01:20:46;;;;;;;;;;;;;;;13.18;42.75;98716.63;5090800;28;19933;-37
2023/03/27 01:23:14;;;;;;;;;;;;;;;13.35;42.07;98712.09;5090496;28;19950;-37
2023/03/27 01:25:52;;;;;;;;;;;;;;;13.46;41.89;98711.19;5091008;28;19934;-37
2023/03/27 01:28:30;;;;;;;;;;;;;;;13.11;43.11;98701.56;5091032;28;19912;-37
2023/03/27 01:30:55;;;;;;;;;;;;;;;13.11;43.15;98692.75;5090696;28;20043;-37
2023/03/27 01:33:29;;;;;;;;;;;;;;;13.23;42.54;98695.31;5090671;28;20057;-37
2023/03/27 01:35:55;;;;;;;;;;;;;;;13.03;43.47;98694.00;5090622;28;19912;-37
2023/03/27 01:38:39;;;;;;;;;;;;;;;12.45;44.65;98688.03;5090544;28;19918;-37
2023/03/27 01:41:19;;;;;;;;;;;;;;;12.77;43.86;98681.31;5090473;28;19958;-36
2023/03/27 01:44:07;;;;;;;;;;;;;;;12.70;44.05;98676.94;5090315;28;20399;-36
2023/03/27 01:46:42;;;;;;;;;;;;;;;12.77;43.76;98670.63;5090438;28;19939;-36
2023/03/27 01:49:11;;;;;;;;;;;;;;;12.26;45.18;98670.59;5090122;28;19912;-36
2023/03/27 01:51:38;;;;;;;;;;;;;;;12.26;45.57;98670.59;5090393;28;20383;-37
2023/03/27 01:54:11;;;;;;;;;;;;;;;12.34;45.73;98670.22;5090288;28;20319;-38
2023/03/27 01:56:39;;;;;;;;;;;;;;;12.60;44.63;98642.06;5090636;28;19924;-37
2023/03/27 01:59:12;;;;;;;;;;;;;;;12.90;44.64;98667.63;5091321;28;19916;-36
2023/03/27 02:01:41;;;;;;;;;;;;;;;13.04;43.92;98668.91;5094493;28;20020;-37
2023/03/27 02:04:11;;;;;;;;;;;;;;;13.13;43.07;98671.94;5095425;28;20068;-36
2023/03/27 02:06:40;;;;;;;;;;;;;;;13.15;42.54;98672.50;5095213;28;19916;-37
2023/03/27 02:09:24;;;;;;;;;;;;;;;13.25;42.53;98670.00;5095572;28;19918;-36
2023/03/27 02:11:55;;;;;;;;;;;;;;;13.10;42.86;98672.47;5095231;28;19961;-36
2023/03/27 02:14:27;;;;;;;;;;;;;;;13.23;42.76;98668.59;5095494;28;19916;-36
2023/03/27 02:16:56;;;;;;;;;;;;;;;13.12;41.74;98665.00;5095027;28;19912;-36
2023/03/27 02:19:25;;;;;;;;;;;;;;;13.13;42.40;98658.59;5095234;28;19912;-37
2023/03/27 02:21:50;;;;;;;;;;;;;;;12.94;42.60;98657.25;5094845;28;19919;-37
2023/03/27 02:24:17;;;;;;;;;;;;;;;13.10;42.44;98648.41;5094656;28;19924;-37
2023/03/27 02:26:43;;;;;;;;;;;;;;;13.17;42.27;98659.72;5095892;28;19922;-37
2023/03/27 02:29:17;;;;;;;;;;;;;;;13.08;42.57;98648.66;5104325;28;19916;-37
2023/03/27 02:31:42;;;;;;;;;;;;;;;12.91;42.88;98632.66;5106533;28;19912;-36
2023/03/27 02:34:14;;;;;;;;;;;;;;;12.58;44.17;98635.38;5099181;28;19919;-37
2023/03/27 02:36:40;;;;;;;;;;;;;;;12.62;43.43;98632.00;5111128;28;20391;-37
2023/03/27 02:39:27;;;;;;;;;;;;;;;12.64;44.05;98629.88;5094480;28;19912;-37
2023/03/27 02:41:55;;;;;;;;;;;;;;;12.40;44.84;98631.91;5094612;28;19912;-37
2023/03/27 02:44:23;;;;;;;;;;;;;;;12.28;44.80;98626.66;5094393;28;19963;-37
2023/03/27 02:46:48;;;;;;;;;;;;;;;12.37;44.05;98620.91;5094602;28;20003;-37
2023/03/27 02:49:17;;;;;;;;;;;;;;;12.24;44.60;98622.84;5094204;28;20462;-37
2023/03/27 02:51:46;;;;;;;;;;;;;;;12.48;44.10;98618.16;5094512;28;20373;-37
2023/03/27 02:54:14;;;;;;;;;;;;;;;12.62;43.97;98617.81;5094241;28;19922;-37
2023/03/27 02:56:42;;;;;;;;;;;;;;;12.66;43.79;98613.59;5094477;28;19916;-37
2023/03/27 02:59:09;;;;;;;;;;;;;;;12.55;43.95;98607.31;5094549;28;19992;-34
2023/03/27 03:01:36;;;;;;;;;;;;;;;12.39;45.24;98616.13;5094223;28;20554;-37
2023/03/27 03:04:16;;;;;;;;;;;;;;;12.36;45.06;98608.63;5093459;28;20232;-36
2023/03/27 03:06:42;;;;;;;;;;;;;;;11.74;46.27;98610.19;5094398;28;19912;-37
2023/03/27 03:09:08;;;;;;;;;;;;;;;11.92;45.54;98611.91;5093524;28;19912;-43
2023/03/27 03:11:35;;;;;;;;;;;;;;;12.04;45.98;98604.63;5094051;28;19912;-43
2023/03/27 03:14:00;;;;;;;;;;;;;;;11.84;46.37;98604.22;5093325;28;20260;-41
2023/03/27 03:16:26;;;;;;;;;;;;;;;11.78;46.13;98600.66;5093591;28;19965;-41
2023/03/27 03:18:51;;;;;;;;;;;;;;;11.53;47.36;98601.00;5093568;28;20456;-43
2023/03/27 03:21:17;;;;;;;;;;;;;;;11.59;46.73;98613.38;5093975;28;19916;-43
2023/03/27 03:23:42;;;;;;;;;;;;;;;11.45;48.14;98604.06;5092631;28;19927;-42
2023/03/27 03:26:08;;;;;;;;;;;;;;;11.40;48.09;98618.06;5093991;28;19943;-41
2023/03/27 03:28:36;;;;;;;;;;;;;;;11.14;48.21;98606.91;5093777;28;19916;-41
2023/03/27 03:31:01;;;;;;;;;;;;;;;10.79;49.36;98598.97;5093449;28;20365;-42
2023/03/27 03:33:28;;;;;;;;;;;;;;;11.02;48.70;98579.47;5093371;28;20996;-42
2023/03/27 03:35:57;;;;;;;;;;;;;;;11.45;48.25;98582.75;5093079;28;19964;-42
2023/03/27 03:38:26;;;;;;;;;;;;;;;11.43;47.67;98572.31;5092600;28;20327;-42
2023/03/27 03:41:01;;;;;;;;;;;;;;;10.97;49.41;98571.41;5093242;28;19912;-43
2023/03/27 03:43:27;;;;;;;;;;;;;;;10.93;50.29;98575.59;5092703;28;19969;-43
2023/03/27 03:45:53;;;;;;;;;;;;;;;11.06;50.48;98577.16;5092840;28;19912;-43
2023/03/27 03:48:18;;;;;;;;;;;;;;;10.47;52.08;98575.38;5092907;28;19912;-43
2023/03/27 03:50:44;;;;;;;;;;;;;;;10.61;52.29;98562.66;5092865;28;19916;-43
2023/03/27 03:53:10;;;;;;;;;;;;;;;10.77;51.63;98561.13;5092096;28;19955;-43
2023/03/27 03:55:36;;;;;;;;;;;;;;;11.06;50.95;98571.84;5091269;28;19916;-43
2023/03/27 03:58:01;;;;;;;;;;;;;;;10.97;52.07;98568.75;5091851;28;19949;-43
2023/03/27 04:00:27;;;;;;;;;;;;;;;11.15;51.59;98559.78;5092045;28;20366;-41
2023/03/27 04:02:52;;;;;;;;;;;;;;;11.14;51.78;98564.31;5092296;28;19912;-43
2023/03/27 04:05:18;;;;;;;;;;;;;;;11.38;51.08;98572.22;5092854;28;19969;-42
2023/03/27 04:07:44;;;;;;;;;;;;;;;11.49;50.36;98565.22;5092596;28;20433;-42
2023/03/27 04:10:10;;;;;;;;;;;;;;;11.10;51.07;98570.31;5092707;28;19924;-42
2023/03/27 04:12:35;;;;;;;;;;;;;;;11.18;51.73;98566.50;5092946;28;19912;-42
2023/03/27 04:15:01;;;;;;;;;;;;;;;11.10;52.67;98557.84;5092711;28;19912;-42
2023/03/27 04:17:26;;;;;;;;;;;;;;;10.83;52.90;98576.16;5093027;28;19999;-42
2023/03/27 04:19:53;;;;;;;;;;;;;;;10.99;53.24;98568.53;5092385;28;19940;-42
2023/03/27 04:22:21;;;;;;;;;;;;;;;11.27;52.81;98557.91;5092565;28;20447;-43
2023/03/27 04:24:49;;;;;;;;;;;;;;;11.36;52.43;98547.66;5091465;28;19927;-42
2023/03/27 04:27:15;;;;;;;;;;;;;;;10.86;53.25;98545.63;5091649;28;19923;-41
2023/03/27 04:29:42;;;;;;;;;;;;;;;11.19;53.26;98541.47;5092646;28;19912;-42
2023/03/27 04:32:08;;;;;;;;;;;;;;;11.73;63.42;98548.09;5091916;28;20027;-42
2023/03/27 04:34:37;;;;;;;;;;;;;;;12.01;54.20;98543.78;5092278;28;19943;-42
2023/03/27 04:37:02;;;;;;;;;;;;;;;12.70;66.51;98556.84;5092062;28;19912;-43
2023/03/27 04:39:28;;;;;;;;;;;;;;;13.85;49.20;98555.22;5091734;28;20116;-42
2023/03/27 04:41:53;;;;;;;;;;;;;;;13.58;47.66;98548.00;5090693;28;19919;-43
2023/03/27 04:44:18;;;;;;;;;;;;;;;13.43;47.53;98543.31;5091916;28;19922;-42
2023/03/27 04:46:44;;;;;;;;;;;;;;;13.19;48.25;98548.06;5091848;28;19916;-42
2023/03/27 04:49:09;;;;;;;;;;;;;;;13.12;48.32;98550.16;5091672;28;19916;-43
2023/03/27 04:51:35;;;;;;;;;;;;;;;13.20;48.48;98549.72;5092159;28;19912;-42
2023/03/27 04:54:03;;;;;;;;;;;;;;;13.51;47.80;98549.28;5090983;28;19912;-43
2023/03/27 04:56:29;;;;;;;;;;;;;;;13.65;47.77;98550.47;5090891;28;19923;-43
2023/03/27 04:58:55;;;;;;;;;;;;;;;13.78;47.57;98538.56;5090127;28;19943;-42
2023/03/27 05:01:21;;;;;;;;;;;;;;;13.81;47.63;98551.44;5090518;28;20426;-45
2023/03/27 05:03:47;;;;;;;;;;;;;;;13.85;48.05;98558.69;5090950;28;19923;-43
2023/03/27 05:06:13;;;;;;;;;;;;;;;14.01;47.33;98542.78;5090207;28;19962;-43
2023/03/27 05:08:38;;;;;;;;;;;;;;;14.12;46.70;98541.00;5090076;28;19912;-43
2023/03/27 05:11:03;;;;;;;;;;;;;;;14.30;46.21;98547.81;5091117;28;19923;-43
2023/03/27 05:13:29;;;;;;;;;;;;;;;14.46;45.81;98544.19;5090837;28;19947;-43
2023/03/27 05:15:54;;;;;;;;;;;;;;;14.78;45.66;98530.75;5083029;28;19977;-44
2023/03/27 05:18:20;;;;;;;;;;;;;;;14.80;45.27;98552.72;5072796;28;19916;-43
2023/03/27 05:20:48;;;;;;;;;;;;;;;14.66;45.60;98548.91;5071062;28;20376;-43
2023/03/27 05:23:13;;;;;;;;;;;;;;;14.99;44.88;98547.72;5070564;28;19921;-44
2023/03/27 05:25:39;;;;;;;;;;;;;;;15.49;44.71;98548.16;5070804;28;19943;-44
2023/03/27 05:28:04;;;;;;;;;;;;;;;15.74;44.27;98534.00;5089052;28;19999;-44
2023/03/27 05:30:29;;;;;;;;;;;;;;;15.12;45.35;98521.53;5090680;28;19913;-44
2023/03/27 05:32:57;;;;;;;;;;;;;;;14.51;47.71;98519.31;5090687;28;20009;-43
2023/03/27 05:35:23;;;;;;;;;;;;;;;14.26;48.21;98531.50;5089119;28;20399;-43
2023/03/27 05:37:50;;;;;;;;;;;;;;;14.86;46.76;98535.59;5088874;28;19947;-43
2023/03/27 05:40:16;;;;;;;;;;;;;;;14.34;48.25;98522.97;5089036;28;19918;-42
2023/03/27 05:42:42;;;;;;;;;;;;;;;14.71;47.52;98530.16;5089911;28;19912;-43
2023/03/27 05:45:08;;;;;;;;;;;;;;;14.86;48.73;98513.38;5090367;28;19912;-44
2023/03/27 05:47:41;;;;;;;;;;;;;;;15.63;46.49;98511.72;5090538;28;20000;-43
2023/03/27 05:50:06;;;;;;;;;;;;;;;15.79;46.13;98512.56;5090767;28;19912;-44
2023/03/27 05:52:32;;;;;;;;;;;;;;;15.14;47.63;98519.38;5090990;28;19912;-43
2023/03/27 05:54:57;;;;;;;;;;;;;;;14.80;49.53;98514.44;5090734;28;19916;-43
2023/03/27 05:57:22;;;;;;;;;;;;;;;14.66;50.28;98506.06;5091189;28;19912;-44
2023/03/27 05:59:48;;;;;;;;;;;;;;;14.42;50.84;98508.31;5090902;28;20218;-43
2023/03/27 06:02:17;;;;;;;;;;;;;;;14.66;50.91;98509.53;5091138;28;19938;-43
2023/03/27 06:04:42;;;;;;;;;;;;;;;15.28;49.09;98507.09;5090817;28;19958;-42
2023/03/27 06:07:07;;;;;;;;;;;;;;;15.80;47.38;98470.44;5090754;28;19962;-43
2023/03/27 06:09:34;;;;;;;;;;;;;;;15.51;48.55;98489.72;5090563;28;19912;-43
2023/03/27 06:11:59;;;;;;;;;;;;;;;15.48;48.58;98494.78;5090935;28;19919;-43
2023/03/27 06:14:24;;;;;;;;;;;;;;;15.63;48.59;98489.44;5091034;28;19916;-43
2023/03/27 06:16:50;;;;;;;;;;;;;;;15.81;48.23;98488.16;5090742;28;19912;-43
2023/03/27 06:19:16;;;;;;;;;;;;;;;16.03;46.60;98491.38;5089751;28;19994;-43
2023/03/27 06:21:41;;;;;;;;;;;;;;;16.17;46.98;98488.16;5090959;28;19999;-43
2023/03/27 06:24:07;;;;;;;;;;;;;;;16.40;46.38;98481.41;5090388;28;20051;-43
2023/03/27 06:26:32;;;;;;;;;;;;;;;15.68;47.81;98478.72;5091041;28;19973;-43
2023/03/27 06:28:58;;;;;;;;;;;;;;;15.43;48.90;98490.25;5090922;28;19990;-43
2023/03/27 06:31:24;;;;;;;;;;;;;;;15.24;49.78;98480.00;5090448;28;19999;-43
2023/03/27 06:33:49;;;;;;;;;;;;;;;14.71;50.44;98475.81;5090398;28;20258;-42
2023/03/27 06:36:14;;;;;;;;;;;;;;;14.82;51.06;98494.34;5089328;28;19962;-42
2023/03/27 06:38:40;;;;;;;;;;;;;;;14.99;51.00;98477.28;5090419;28;19913;-43
2023/03/27 06:41:06;;;;;;;;;;;;;;;14.96;51.05;98483.94;5090738;28;20325;-43
2023/03/27 06:43:31;;;;;;;;;;;;;;;14.46;52.80;98475.41;5090429;28;20042;-43
2023/03/27 06:45:56;;;;;;;;;;;;;;;14.98;51.16;98470.28;5090575;28;20094;-43
2023/03/27 06:48:23;;;;;;;;;;;;;;;15.19;50.68;98465.78;5093272;28;19912;-43
2023/03/27 06:50:49;;;;;;;;;;;;;;;15.44;51.49;98457.03;5094175;28;19935;-43
2023/03/27 06:53:16;;;;;;;;;;;;;;;15.69;50.41;98466.94;5093865;28;20264;-44
2023/03/27 06:55:42;;;;;;;;;;;;;;;15.92;49.56;98456.78;5094068;28;19912;-44
2023/03/27 06:58:12;;;;;;;;;;;;;;;15.30;50.77;98454.03;5094229;28;19912;-43
2023/03/27 07:00:39;;;;;;;;;;;;;;;15.56;51.01;98446.81;5093756;28;19920;-43
2023/03/27 07:03:07;;;;;;;;;;;;;;;15.91;49.95;98447.91;5093597;28;20304;-43
2023/03/27 07:05:35;;;;;;;;;;;;;;;16.06;49.43;98430.19;5093639;28;19998;-43
2023/03/27 07:08:01;;;;;;;;;;;;;;;15.56;51.32;98428.06;5093566;28;20023;-43
2023/03/27 07:10:27;;;;;;;;;;;;;;;15.26;51.73;98431.50;5093616;28;19919;-43
2023/03/27 07:12:55;;;;;;;;;;;;;;;15.12;52.05;98412.47;5093819;28;19912;-43
2023/03/27 07:15:21;;;;;;;;;;;;;;;14.85;53.25;98385.91;5093484;28;19935;-42
2023/03/27 07:17:53;;;;;;;;;;;;;;;15.74;51.57;98391.88;5093429;28;19966;-43
2023/03/27 07:20:19;;;;;;;;;;;;;;;15.50;51.15;98382.72;5093720;28;19912;-43
2023/03/27 07:22:44;;;;;;;;;;;;;;;14.84;52.65;98349.47;5093295;28;19999;-43
2023/03/27 07:25:11;;;;;;;;;;;;;;;14.94;53.14;98354.03;5093533;28;20362;-43
2023/03/27 07:27:37;;;;;;;;;;;;;;;15.43;53.06;98334.78;5093390;28;20021;-43
2023/03/27 07:30:03;;;;;;;;;;;;;;;15.13;54.18;98314.94;5093187;28;19912;-43
2023/03/27 07:32:28;;;;;;;;;;;;;;;15.50;52.86;98318.41;5093164;28;19962;-43
2023/03/27 07:34:57;;;;;;;;;;;;;;;15.89;51.54;98291.78;5093221;28;20002;-43
2023/03/27 07:37:22;;;;;;;;;;;;;;;15.06;54.19;98284.94;5092247;28;19916;-43
2023/03/27 07:39:48;;;;;;;;;;;;;;;15.01;55.25;98280.38;5093329;28;19924;-43
2023/03/27 07:42:13;;;;;;;;;;;;;;;14.65;56.71;98255.44;5093035;28;19916;-43
2023/03/27 07:44:38;;;;;;;;;;;;;;;15.55;54.77;98244.13;5092956;28;19917;-44
2023/03/27 07:47:03;;;;;;;;;;;;;;;16.09;53.18;98233.75;5092965;28;20343;-43
2023/03/27 07:49:29;;;;;;;;;;;;;;;15.22;56.03;98240.97;5092847;28;20189;-44
2023/03/27 07:51:54;;;;;;;;;;;;;;;15.13;56.33;98218.47;5092957;28;19970;-43
2023/03/27 07:54:20;;;;;;;;;;;;;;;15.30;56.56;98209.34;5093189;28;20012;-44
2023/03/27 07:56:46;;;;;;;;;;;;;;;16.25;53.99;98191.56;5092656;28;19912;-44
2023/03/27 07:59:11;;;;;;;;;;;;;;;15.61;55.04;98208.19;5092520;28;19926;-44
2023/03/27 08:01:36;;;;;;;;;;;;;;;15.65;55.73;98189.69;5092526;28;20338;-43
2023/03/27 08:04:02;;;;;;;;;;;;;;;15.16;57.01;98190.38;5092531;28;20014;-43
2023/03/27 08:06:27;;;;;;;;;;;;;;;15.25;56.80;98160.06;5092930;28;19919;-43
2023/03/27 08:08:53;;;;;;;;;;;;;;;16.17;54.59;98156.16;5092895;28;20319;-44
2023/03/27 08:11:18;;;;;;;;;;;;;;;15.32;56.36;98162.44;5092708;28;20319;-44
2023/03/27 08:13:44;;;;;;;;;;;;;;;15.18;57.87;98164.09;5093014;28;20331;-44
2023/03/27 08:16:14;;;;;;;;;;;;;;;15.14;57.46;98179.13;5092801;28;20407;-43
2023/03/27 08:18:40;;;;;;;;;;;;;;;15.40;57.58;98174.47;5092068;28;20154;-43
2023/03/27 08:21:07;;;;;;;;;;;;;;;16.37;54.65;98167.84;5091296;28;19908;-43
2023/03/27 08:23:32;;;;;;;;;;;;;;;16.48;54.03;98150.56;5091741;28;19920;-42
2023/03/27 08:25:59;;;;;;;;;;;;;;;15.77;56.33;98141.13;5091901;28;19931;-43
2023/03/27 08:28:28;;;;;;;;;;;;;;;15.72;57.15;98125.81;5091794;28;19923;-43
2023/03/27 08:30:54;;;;;;;;;;;;;;;15.45;57.46;98135.06;5091626;28;19912;-43
2023/03/27 08:33:21;;;;;;;;;;;;;;;15.71;58.23;98124.22;5092092;28;19919;-43
2023/03/27 08:35:47;;;;;;;;;;;;;;;15.73;57.89;98115.91;5091593;28;20379;-42
2023/03/27 08:38:13;;;;;;;;;;;;;;;16.15;56.74;98111.91;5091757;28;19912;-44
2023/03/27 08:40:39;;;;;;;;;;;;;;;16.10;57.22;98109.25;5091420;28;20000;-43
2023/03/27 08:43:11;;;;;;;;;;;;;;;16.61;55.51;98100.81;5091544;28;19912;-43
2023/03/27 08:46:05;;;;;;;;;;;;;;;17.02;54.92;98105.81;5091190;28;19955;-44
2023/03/27 08:48:34;;;;;;;;;;;;;;;18.28;52.15;98097.44;5086688;28;20019;-42
2023/03/27 08:51:26;;;;;;;;;;;;;;;18.81;51.08;98107.06;5091608;28;19912;-40
2023/03/27 08:53:55;;;;;;;;;;;;;;;19.49;50.27;98103.56;5090272;28;19912;-41
2023/03/27 08:56:23;;;;;;;;;;;;;;;19.17;51.32;98098.31;5091258;28;20019;-36
2023/03/27 08:58:48;;;;;;;;;;;;;;;19.74;50.26;98090.66;5090832;28;19912;-37
2023/03/27 09:01:30;;;;;;;;;;;;;;;20.27;49.58;98081.88;5090923;28;19981;-37
2023/03/27 09:04:19;;;;;;;;;;;;;;;19.72;50.22;98064.00;5091112;28;19912;-36
2023/03/27 09:06:49;;;;;;;;;;;;;;;19.63;49.41;98063.09;5071293;28;20110;-37
2023/03/27 09:09:26;;;;;;;;;;;;;;;20.47;49.02;98053.56;5091376;28;20065;-37
2023/03/27 09:12:27;;;;;;;;;;;;;;;20.78;46.84;98060.13;5090639;28;19912;-36
2023/03/27 09:15:06;;;;;;;;;;;;;;;21.08;46.17;98042.25;5048305;28;19943;-38
2023/03/27 09:17:38;;;;;;;;;;;;;;;22.04;44.13;98039.66;5086295;28;19912;-37
2023/03/27 09:20:06;;;;;;;;;;;;;;;21.98;43.68;98024.69;5090571;28;19955;-36
2023/03/27 09:22:39;;;;;;;;;;;;;;;22.67;43.04;98004.00;5090767;28;19916;-37
2023/03/27 09:25:13;;;;;;;;;;;;;;;22.71;41.30;97996.78;5090904;28;20027;-37
2023/03/27 09:27:39;;;;;;;;;;;;;;;23.53;40.32;97991.06;5090885;28;19919;-36
2023/03/27 09:30:10;;;;;;;;;;;;;;;23.64;39.01;97983.31;5090884;28;19916;-37
2023/03/27 09:32:36;;;;;;;;;;;;;;;23.88;37.86;97969.09;5090738;28;19912;-36
2023/03/27 09:35:03;;;;;;;;;;;;;;;23.99;36.70;97973.75;5090769;28;19947;-36
2023/03/27 09:37:29;;;;;;;;;;;;;;;24.33;33.48;97973.72;5090744;28;19912;-36
2023/03/27 09:39:58;;;;;;;;;;;;;;;24.78;32.83;97979.09;5090227;28;19939;-36
2023/03/27 09:42:36;;;;;;;;;;;;;;;24.48;34.80;97975.75;5090866;28;19912;-35
2023/03/27 09:45:02;;;;;;;;;;;;;;;23.97;37.85;97978.72;5090356;28;19927;-35
2023/03/27 09:47:37;;;;;;;;;;;;;;;23.92;37.64;97984.38;5090447;28;19916;-37
2023/03/27 09:50:27;;;;;;;;;;;;;;;24.65;35.04;97974.00;5090803;28;19912;-36
2023/03/27 09:53:09;;;;;;;;;;;;;;;24.33;37.49;97981.84;5090503;28;19912;-37
2023/03/27 09:55:43;;;;;;;;;;;;;;;24.29;38.05;97986.38;5090932;28;19916;-37
2023/03/27 09:58:12;;;;;;;;;;;;;;;24.67;37.09;97991.56;5090526;28;19912;-37
2023/03/27 10:00:38;;;;;;;;;;;;;;;24.50;37.18;97999.91;5090579;28;19912;-37
2023/03/27 10:03:04;;;;;;;;;;;;;;;24.19;38.09;97996.56;5090689;28;19919;-37
2023/03/27 10:05:31;;;;;;;;;;;;;;;24.43;37.66;97994.22;5090404;28;20386;-38
2023/03/27 10:07:57;;;;;;;;;;;;;;;23.84;38.37;97995.28;5090209;28;19956;-37
2023/03/27 10:10:25;;;;;;;;;;;;;;;23.36;38.89;97997.41;5089959;28;19919;-36
2023/03/27 10:12:54;;;;;;;;;;;;;;;23.33;39.06;97998.09;5090550;28;20352;-37
2023/03/27 10:15:23;;;;;;;;;;;;;;;22.42;40.46;97996.41;5090294;28;20380;-36
2023/03/27 10:17:48;;;;;;;;;;;;;;;22.29;40.88;97992.00;5090285;28;19912;-36
2023/03/27 10:20:15;;;;;;;;;;;;;;;22.37;40.47;97971.41;5090419;28;19919;-37
2023/03/27 10:22:41;;;;;;;;;;;;;;;22.12;40.92;97976.56;5091959;28;19995;-36
2023/03/27 10:25:33;;;;;;;;;;;;;;;21.66;41.63;97972.66;5094403;28;20522;-36
2023/03/27 10:28:15;;;;;;;;;;;;;;;22.01;41.29;97972.63;5092192;28;19919;-37
2023/03/27 10:30:41;;;;;;;;;;;;;;;21.55;41.91;97974.91;5094349;28;20006;-37
2023/03/27 10:33:06;;;;;;;;;;;;;;;21.67;41.75;97968.84;5094387;28;20574;-37
2023/03/27 10:35:33;;;;;;;;;;;;;;;22.47;40.56;97964.88;5094239;28;19913;-36
2023/03/27 10:37:59;;;;;;;;;;;;;;;22.29;40.30;97961.41;5093963;28;20011;-37
2023/03/27 10:40:25;;;;;;;;;;;;;;;22.12;40.86;97952.19;5093734;28;19919;-37
2023/03/27 10:42:54;;;;;;;;;;;;;;;22.60;39.76;97950.31;5094116;28;20052;-37
2023/03/27 10:45:20;;;;;;;;;;;;;;;22.76;39.50;97953.25;5093826;28;19923;-39
2023/03/27 10:47:53;;;;;;;;;;;;;;;22.34;40.01;97950.41;5093890;28;20419;-39
2023/03/27 10:50:20;;;;;;;;;;;;;;;22.15;40.41;97951.53;5093929;28;20013;-36
2023/03/27 10:52:45;;;;;;;;;;;;;;;22.20;40.25;97945.13;5093806;28;19916;-37
2023/03/27 10:55:11;;;;;;;;;;;;;;;22.29;39.78;97945.16;5093400;28;19998;-37
2023/03/27 10:57:38;;;;;;;;;;;;;;;21.58;41.56;97940.97;5093418;28;19912;-37
2023/03/27 11:00:09;;;;;;;;;;;;;;;21.61;41.26;97929.50;5093749;28;19919;-37
2023/03/27 11:02:37;;;;;;;;;;;;;;;21.89;40.98;97921.03;5093943;28;19961;-37
2023/03/27 11:05:09;;;;;;;;;;;;;;;22.41;39.59;97905.44;5093602;28;19916;-37
2023/03/27 11:07:41;;;;;;;;;;;;;;;22.70;38.91;97884.06;5093214;28;19916;-36
2023/03/27 11:10:17;;;;;;;;;;;;;;;22.81;38.74;97875.22;5093487;28;19922;-38
2023/03/27 11:12:47;;;;;;;;;;;;;;;23.33;38.07;97862.41;5091285;28;20401;-38
2023/03/27 11:15:21;;;;;;;;;;;;;;;23.01;38.48;97851.16;5093290;28;19965;-38
2023/03/27 11:18:03;;;;;;;;;;;;;;;23.65;37.70;97833.66;5093344;28;19912;-36
2023/03/27 11:20:50;;;;;;;;;;;;;;;23.64;37.34;97817.72;5090999;28;20386;-37
2023/03/27 11:23:27;;;;;;;;;;;;;;;23.37;37.91;97790.84;5091594;28;19931;-36
2023/03/27 11:25:52;;;;;;;;;;;;;;;23.81;37.28;97793.88;5091809;28;19942;-38
2023/03/27 11:28:40;;;;;;;;;;;;;;;23.53;37.49;97795.63;5092977;28;20406;-35
2023/03/27 11:31:22;;;;;;;;;;;;;;;24.07;36.85;97781.91;5092136;28;19916;-38
2023/03/27 11:34:04;;;;;;;;;;;;;;;24.04;35.95;97768.22;5089861;28;19916;-36
2023/03/27 11:36:39;;;;;;;;;;;;;;;23.73;36.09;97759.47;5090587;28;20375;-37
2023/03/27 11:39:25;;;;;;;;;;;;;;;24.05;34.92;97746.16;5092562;28;19912;-37
2023/03/27 11:41:53;;;;;;;;;;;;;;;24.34;33.72;97726.06;5090545;28;19982;-37
2023/03/27 11:44:19;;;;;;;;;;;;;;;24.91;32.44;97726.91;5099868;28;19924;-37
2023/03/27 11:47:00;;;;;;;;;;;;;;;24.64;32.49;97727.72;5093109;28;19996;-36
2023/03/27 11:49:28;;;;;;;;;;;;;;;24.91;32.00;97724.19;5093064;28;20280;-38
2023/03/27 11:51:56;;;;;;;;;;;;;;;25.38;31.16;97727.34;5092721;28;19912;-37
2023/03/27 11:54:40;;;;;;;;;;;;;;;25.86;30.33;97725.44;5092987;28;19935;-36
2023/03/27 11:57:13;;;;;;;;;;;;;;;26.13;29.83;97719.06;5093261;28;19938;-36
2023/03/27 12:00:04;;;;;;;;;;;;;;;26.66;29.53;97706.97;5095609;28;19912;-37
2023/03/27 12:02:48;;;;;;;;;;;;;;;27.05;28.26;97698.72;5072493;28;19919;-37
2023/03/27 12:05:23;;;;;;;;;;;;;;;26.05;28.93;97689.31;5111272;28;19928;-39
2023/03/27 12:07:49;;;;;;;;;;;;;;;26.39;28.59;97687.69;5111728;28;19912;-38
2023/03/27 12:10:27;;;;;;;;;;;;;;;26.88;28.07;97675.41;5112639;28;20336;-37
2023/03/27 12:12:52;;;;;;;;;;;;;;;27.68;26.99;97678.34;5112846;28;19912;-37
2023/03/27 12:15:33;;;;;;;;;;;;;;;27.88;26.14;97666.19;5112964;28;20014;-37
2023/03/27 12:18:13;;;;;;;;;;;;;;;27.80;25.76;97663.72;5112941;28;19922;-37
2023/03/27 12:20:59;;;;;;;;;;;;;;;26.86;26.70;97659.41;5113140;28;19916;-34
2023/03/27 12:23:25;;;;;;;;;;;;;;;27.45;25.62;97664.72;5112812;28;20434;-37
2023/03/27 12:25:51;;;;;;;;;;;;;;;27.43;25.38;97651.44;5112955;28;20007;-36
2023/03/27 12:28:34;;;;;;;;;;;;;;;26.70;26.27;97643.13;5096416;28;19919;-36
2023/03/27 12:31:05;;;;;;;;;;;;;;;26.16;26.45;97637.75;5091775;28;19970;-36
2023/03/27 12:33:31;;;;;;;;;;;;;;;26.11;26.47;97645.06;5091650;28;19969;-37
2023/03/27 12:35:59;;;;;;;;;;;;;;;26.64;25.82;97641.88;5091356;28;19912;-35
2023/03/27 12:38:39;;;;;;;;;;;;;;;27.26;25.05;97633.63;5091500;28;19912;-36
2023/03/27 12:41:12;;;;;;;;;;;;;;;27.37;24.34;97616.63;5109008;28;20006;-35
2023/03/27 12:43:42;;;;;;;;;;;;;;;27.61;23.84;97618.16;5095978;28;20468;-37
2023/03/27 12:46:11;;;;;;;;;;;;;;;27.21;24.27;97616.75;5089116;28;19922;-36
2023/03/27 12:48:50;;;;;;;;;;;;;;;27.98;23.80;97614.78;5102213;28;19961;-37
2023/03/27 12:51:18;;;;;;;;;;;;;;;27.74;23.32;97613.25;5109910;28;19922;-37
2023/03/27 12:53:53;;;;;;;;;;;;;;;26.83;24.30;97604.78;5090811;28;19916;-36
2023/03/27 12:56:19;;;;;;;;;;;;;;;26.68;24.77;97601.03;5090967;28;19970;-35
2023/03/27 12:58:46;;;;;;;;;;;;;;;26.47;24.70;97607.63;5091107;28;20303;-36